sensor_id;sensor_type;location;lat;lon;timestamp;temperature;humidity
40622;DHT22;26324;52.040;11.528;2022-10-31T00:01:14;13.10;85.50
40622;DHT22;26324;52.040;11.528;2022-10-31T00:03:40;13.10;85.30
40622;DHT22;26324;52.040;11.528;2022-10-31T00:06:06;13.20;85.10
40622;DHT22;26324;52.040;11.528;2022-10-31T00:08:32;13.30;84.90
40622;DHT22;26324;52.040;11.528;2022-10-31T00:10:57;13.30;84.80
40622;DHT22;26324;52.040;11.528;2022-10-31T00:13:23;13.40;84.70
40622;DHT22;26324;52.040;11.528;2022-10-31T00:15:48;13.30;84.30
40622;DHT22;26324;52.040;11.528;2022-10-31T00:18:14;13.30;84.10
40622;DHT22;26324;52.040;11.528;2022-10-31T00:20:39;13.20;84.00
40622;DHT22;26324;52.040;11.528;2022-10-31T00:23:06;13.10;83.90
40622;DHT22;26324;52.040;11.528;2022-10-31T00:25:37;13.10;83.60
40622;DHT22;26324;52.040;11.528;2022-10-31T00:28:07;13.10;83.40
40622;DHT22;26324;52.040;11.528;2022-10-31T00:30:33;13.00;83.40
40622;DHT22;26324;52.040;11.528;2022-10-31T00:32:59;12.90;83.30
40622;DHT22;26324;52.040;11.528;2022-10-31T00:35:24;12.90;84.50
40622;DHT22;26324;52.040;11.528;2022-10-31T00:37:51;12.80;85.10
40622;DHT22;26324;52.040;11.528;2022-10-31T00:40:17;12.80;85.50
40622;DHT22;26324;52.040;11.528;2022-10-31T00:42:43;12.90;85.50
40622;DHT22;26324;52.040;11.528;2022-10-31T00:45:09;13.00;85.30
40622;DHT22;26324;52.040;11.528;2022-10-31T00:47:35;13.00;85.10
40622;DHT22;26324;52.040;11.528;2022-10-31T00:50:01;13.10;84.80
40622;DHT22;26324;52.040;11.528;2022-10-31T00:52:26;13.10;84.50
40622;DHT22;26324;52.040;11.528;2022-10-31T00:54:52;13.00;84.50
40622;DHT22;26324;52.040;11.528;2022-10-31T00:57:17;13.00;84.40
40622;DHT22;26324;52.040;11.528;2022-10-31T00:59:43;13.00;84.40
40622;DHT22;26324;52.040;11.528;2022-10-31T01:02:08;13.00;84.10
40622;DHT22;26324;52.040;11.528;2022-10-31T01:04:34;13.00;84.00
40622;DHT22;26324;52.040;11.528;2022-10-31T01:06:59;13.00;83.70
40622;DHT22;26324;52.040;11.528;2022-10-31T01:09:25;13.00;83.70
40622;DHT22;26324;52.040;11.528;2022-10-31T01:11:50;13.00;83.40
40622;DHT22;26324;52.040;11.528;2022-10-31T01:14:16;13.10;83.20
40622;DHT22;26324;52.040;11.528;2022-10-31T01:16:41;13.00;83.00
40622;DHT22;26324;52.040;11.528;2022-10-31T01:19:07;12.90;82.90
40622;DHT22;26324;52.040;11.528;2022-10-31T01:21:33;12.80;82.90
40622;DHT22;26324;52.040;11.528;2022-10-31T01:23:59;12.80;83.00
40622;DHT22;26324;52.040;11.528;2022-10-31T01:26:29;12.70;83.20
40622;DHT22;26324;52.040;11.528;2022-10-31T01:29:05;12.60;83.80
40622;DHT22;26324;52.040;11.528;2022-10-31T01:31:33;12.60;83.80
40622;DHT22;26324;52.040;11.528;2022-10-31T01:33:59;12.70;83.80
40622;DHT22;26324;52.040;11.528;2022-10-31T01:36:31;12.70;83.60
40622;DHT22;26324;52.040;11.528;2022-10-31T01:38:59;12.60;83.70
40622;DHT22;26324;52.040;11.528;2022-10-31T01:41:28;12.60;83.70
40622;DHT22;26324;52.040;11.528;2022-10-31T01:46:31;12.60;83.80
40622;DHT22;26324;52.040;11.528;2022-10-31T01:49:00;12.60;83.80
40622;DHT22;26324;52.040;11.528;2022-10-31T01:51:29;12.50;83.80
40622;DHT22;26324;52.040;11.528;2022-10-31T01:54:01;12.50;83.80
40622;DHT22;26324;52.040;11.528;2022-10-31T01:56:27;12.50;83.50
40622;DHT22;26324;52.040;11.528;2022-10-31T01:58:54;12.30;83.90
40622;DHT22;26324;52.040;11.528;2022-10-31T02:01:21;12.30;84.30
40622;DHT22;26324;52.040;11.528;2022-10-31T02:03:47;12.20;84.50
40622;DHT22;26324;52.040;11.528;2022-10-31T02:06:36;12.20;84.90
40622;DHT22;26324;52.040;11.528;2022-10-31T02:09:04;12.10;85.50
40622;DHT22;26324;52.040;11.528;2022-10-31T02:11:31;12.10;85.70
40622;DHT22;26324;52.040;11.528;2022-10-31T02:13:59;12.10;85.80
40622;DHT22;26324;52.040;11.528;2022-10-31T02:16:25;12.10;85.70
40622;DHT22;26324;52.040;11.528;2022-10-31T02:18:51;12.10;85.60
40622;DHT22;26324;52.040;11.528;2022-10-31T02:21:41;12.10;85.50
40622;DHT22;26324;52.040;11.528;2022-10-31T02:27:21;12.00;85.50
40622;DHT22;26324;52.040;11.528;2022-10-31T02:29:53;12.00;85.00
40622;DHT22;26324;52.040;11.528;2022-10-31T02:38:13;12.10;84.80
40622;DHT22;26324;52.040;11.528;2022-10-31T02:40:49;12.10;85.00
40622;DHT22;26324;52.040;11.528;2022-10-31T02:43:26;12.10;85.10
40622;DHT22;26324;52.040;11.528;2022-10-31T02:46:13;12.00;85.30
40622;DHT22;26324;52.040;11.528;2022-10-31T02:48:41;11.90;86.10
40622;DHT22;26324;52.040;11.528;2022-10-31T02:51:10;11.80;86.40
40622;DHT22;26324;52.040;11.528;2022-10-31T02:53:37;11.80;86.60
40622;DHT22;26324;52.040;11.528;2022-10-31T02:56:13;11.90;86.60
40622;DHT22;26324;52.040;11.528;2022-10-31T02:58:47;12.00;86.40
40622;DHT22;26324;52.040;11.528;2022-10-31T03:09:41;12.20;85.80
40622;DHT22;26324;52.040;11.528;2022-10-31T03:12:40;12.30;85.20
40622;DHT22;26324;52.040;11.528;2022-10-31T03:15:25;12.30;84.90
40622;DHT22;26324;52.040;11.528;2022-10-31T03:20:28;12.10;84.30
40622;DHT22;26324;52.040;11.528;2022-10-31T03:22:57;12.00;84.20
40622;DHT22;26324;52.040;11.528;2022-10-31T03:25:23;11.90;83.90
40622;DHT22;26324;52.040;11.528;2022-10-31T03:27:51;11.80;83.90
40622;DHT22;26324;52.040;11.528;2022-10-31T03:30:17;11.60;83.90
40622;DHT22;26324;52.040;11.528;2022-10-31T03:32:52;11.50;84.20
40622;DHT22;26324;52.040;11.528;2022-10-31T03:35:21;11.40;84.20
40622;DHT22;26324;52.040;11.528;2022-10-31T03:37:49;11.40;84.70
40622;DHT22;26324;52.040;11.528;2022-10-31T03:40:16;11.30;86.00
40622;DHT22;26324;52.040;11.528;2022-10-31T03:42:50;11.50;86.80
40622;DHT22;26324;52.040;11.528;2022-10-31T03:45:23;11.70;87.00
40622;DHT22;26324;52.040;11.528;2022-10-31T03:47:50;11.80;86.70
40622;DHT22;26324;52.040;11.528;2022-10-31T03:50:17;11.90;86.40
40622;DHT22;26324;52.040;11.528;2022-10-31T03:55:43;12.00;85.60
40622;DHT22;26324;52.040;11.528;2022-10-31T03:58:21;12.10;85.50
40622;DHT22;26324;52.040;11.528;2022-10-31T04:00:48;12.00;85.40
40622;DHT22;26324;52.040;11.528;2022-10-31T04:03:20;12.10;85.30
40622;DHT22;26324;52.040;11.528;2022-10-31T04:05:48;12.00;85.30
40622;DHT22;26324;52.040;11.528;2022-10-31T04:08:21;12.10;85.20
40622;DHT22;26324;52.040;11.528;2022-10-31T04:10:49;12.10;84.60
40622;DHT22;26324;52.040;11.528;2022-10-31T04:13:21;12.00;84.10
40622;DHT22;26324;52.040;11.528;2022-10-31T04:15:50;12.00;83.60
40622;DHT22;26324;52.040;11.528;2022-10-31T04:18:21;11.80;83.40
40622;DHT22;26324;52.040;11.528;2022-10-31T04:20:47;11.60;83.70
40622;DHT22;26324;52.040;11.528;2022-10-31T04:23:22;11.50;84.40
40622;DHT22;26324;52.040;11.528;2022-10-31T04:25:49;11.60;84.80
40622;DHT22;26324;52.040;11.528;2022-10-31T04:28:15;11.70;84.90
40622;DHT22;26324;52.040;11.528;2022-10-31T04:30:40;11.70;84.50
40622;DHT22;26324;52.040;11.528;2022-10-31T04:33:06;11.70;84.30
40622;DHT22;26324;52.040;11.528;2022-10-31T04:35:31;11.50;84.60
40622;DHT22;26324;52.040;11.528;2022-10-31T04:37:57;11.30;85.00
40622;DHT22;26324;52.040;11.528;2022-10-31T04:40:23;11.20;85.30
40622;DHT22;26324;52.040;11.528;2022-10-31T04:42:48;11.10;85.30
40622;DHT22;26324;52.040;11.528;2022-10-31T04:45:14;11.00;85.70
40622;DHT22;26324;52.040;11.528;2022-10-31T04:47:39;10.90;85.80
40622;DHT22;26324;52.040;11.528;2022-10-31T04:50:05;10.90;85.90
40622;DHT22;26324;52.040;11.528;2022-10-31T04:52:31;11.00;86.10
40622;DHT22;26324;52.040;11.528;2022-10-31T04:54:56;11.00;86.30
40622;DHT22;26324;52.040;11.528;2022-10-31T04:57:22;11.00;86.90
40622;DHT22;26324;52.040;11.528;2022-10-31T04:59:47;11.00;87.20
40622;DHT22;26324;52.040;11.528;2022-10-31T05:02:13;11.00;87.30
40622;DHT22;26324;52.040;11.528;2022-10-31T05:04:38;10.90;87.20
40622;DHT22;26324;52.040;11.528;2022-10-31T05:07:04;10.80;87.40
40622;DHT22;26324;52.040;11.528;2022-10-31T05:09:29;10.80;87.50
40622;DHT22;26324;52.040;11.528;2022-10-31T05:11:55;10.80;87.40
40622;DHT22;26324;52.040;11.528;2022-10-31T05:14:20;10.70;87.30
40622;DHT22;26324;52.040;11.528;2022-10-31T05:16:46;10.70;87.20
40622;DHT22;26324;52.040;11.528;2022-10-31T05:19:11;10.80;87.50
40622;DHT22;26324;52.040;11.528;2022-10-31T05:21:37;10.90;87.50
40622;DHT22;26324;52.040;11.528;2022-10-31T05:24:03;10.90;87.70
40622;DHT22;26324;52.040;11.528;2022-10-31T05:26:28;11.00;88.00
40622;DHT22;26324;52.040;11.528;2022-10-31T05:28:54;11.10;88.30
40622;DHT22;26324;52.040;11.528;2022-10-31T05:31:19;11.20;88.40
40622;DHT22;26324;52.040;11.528;2022-10-31T05:33:45;11.30;88.70
40622;DHT22;26324;52.040;11.528;2022-10-31T05:36:10;11.20;88.60
40622;DHT22;26324;52.040;11.528;2022-10-31T05:38:36;11.10;88.90
40622;DHT22;26324;52.040;11.528;2022-10-31T05:41:02;11.10;88.90
40622;DHT22;26324;52.040;11.528;2022-10-31T05:43:28;11.20;89.10
40622;DHT22;26324;52.040;11.528;2022-10-31T05:45:55;11.20;89.40
40622;DHT22;26324;52.040;11.528;2022-10-31T05:48:20;11.20;89.40
40622;DHT22;26324;52.040;11.528;2022-10-31T05:50:48;11.40;90.10
40622;DHT22;26324;52.040;11.528;2022-10-31T05:53:13;11.60;90.10
40622;DHT22;26324;52.040;11.528;2022-10-31T05:55:39;11.70;90.30
40622;DHT22;26324;52.040;11.528;2022-10-31T05:58:06;11.80;90.30
40622;DHT22;26324;52.040;11.528;2022-10-31T06:00:32;11.90;90.40
40622;DHT22;26324;52.040;11.528;2022-10-31T06:03:02;11.90;90.20
40622;DHT22;26324;52.040;11.528;2022-10-31T06:05:29;12.00;90.70
40622;DHT22;26324;52.040;11.528;2022-10-31T06:07:54;12.10;90.70
40622;DHT22;26324;52.040;11.528;2022-10-31T06:10:20;12.10;90.60
40622;DHT22;26324;52.040;11.528;2022-10-31T06:12:46;12.10;90.40
40622;DHT22;26324;52.040;11.528;2022-10-31T06:15:12;12.10;90.30
40622;DHT22;26324;52.040;11.528;2022-10-31T06:17:38;12.10;90.10
40622;DHT22;26324;52.040;11.528;2022-10-31T06:20:05;12.10;89.90
40622;DHT22;26324;52.040;11.528;2022-10-31T06:22:31;12.00;89.80
40622;DHT22;26324;52.040;11.528;2022-10-31T06:24:57;11.90;89.80
40622;DHT22;26324;52.040;11.528;2022-10-31T06:27:23;11.80;89.70
40622;DHT22;26324;52.040;11.528;2022-10-31T06:29:49;11.80;89.60
40622;DHT22;26324;52.040;11.528;2022-10-31T06:32:15;11.80;89.50
40622;DHT22;26324;52.040;11.528;2022-10-31T06:34:41;11.80;89.50
40622;DHT22;26324;52.040;11.528;2022-10-31T06:37:08;11.90;89.90
40622;DHT22;26324;52.040;11.528;2022-10-31T06:39:33;11.90;90.30
40622;DHT22;26324;52.040;11.528;2022-10-31T06:41:59;12.00;90.60
40622;DHT22;26324;52.040;11.528;2022-10-31T06:44:25;12.00;90.60
40622;DHT22;26324;52.040;11.528;2022-10-31T06:46:50;12.00;90.70
40622;DHT22;26324;52.040;11.528;2022-10-31T06:49:16;12.10;90.40
40622;DHT22;26324;52.040;11.528;2022-10-31T06:51:42;12.10;89.80
40622;DHT22;26324;52.040;11.528;2022-10-31T06:54:08;12.10;89.70
40622;DHT22;26324;52.040;11.528;2022-10-31T06:56:33;12.10;89.70
40622;DHT22;26324;52.040;11.528;2022-10-31T06:58:59;12.20;90.00
40622;DHT22;26324;52.040;11.528;2022-10-31T07:01:24;12.30;90.40
40622;DHT22;26324;52.040;11.528;2022-10-31T07:03:50;12.40;91.00
40622;DHT22;26324;52.040;11.528;2022-10-31T07:06:16;12.60;91.40
40622;DHT22;26324;52.040;11.528;2022-10-31T07:08:41;12.80;91.80
40622;DHT22;26324;52.040;11.528;2022-10-31T07:11:07;13.00;91.90
40622;DHT22;26324;52.040;11.528;2022-10-31T07:13:32;13.10;92.20
40622;DHT22;26324;52.040;11.528;2022-10-31T07:16:03;13.30;92.30
40622;DHT22;26324;52.040;11.528;2022-10-31T07:18:30;13.40;92.30
40622;DHT22;26324;52.040;11.528;2022-10-31T07:20:55;13.50;92.20
40622;DHT22;26324;52.040;11.528;2022-10-31T07:23:21;13.50;92.10
40622;DHT22;26324;52.040;11.528;2022-10-31T07:25:47;13.60;92.00
40622;DHT22;26324;52.040;11.528;2022-10-31T07:28:13;13.60;92.10
40622;DHT22;26324;52.040;11.528;2022-10-31T07:30:39;13.60;91.90
40622;DHT22;26324;52.040;11.528;2022-10-31T07:33:05;13.70;92.00
40622;DHT22;26324;52.040;11.528;2022-10-31T07:35:31;13.80;91.90
40622;DHT22;26324;52.040;11.528;2022-10-31T07:38:05;13.80;91.70
40622;DHT22;26324;52.040;11.528;2022-10-31T07:40:31;13.90;91.50
40622;DHT22;26324;52.040;11.528;2022-10-31T07:42:57;14.00;91.30
40622;DHT22;26324;52.040;11.528;2022-10-31T07:45:23;14.00;91.30
40622;DHT22;26324;52.040;11.528;2022-10-31T07:47:50;14.10;91.20
40622;DHT22;26324;52.040;11.528;2022-10-31T07:50:21;14.10;91.10
40622;DHT22;26324;52.040;11.528;2022-10-31T07:52:48;14.10;91.10
40622;DHT22;26324;52.040;11.528;2022-10-31T07:55:14;14.10;91.00
40622;DHT22;26324;52.040;11.528;2022-10-31T07:57:40;14.20;91.30
40622;DHT22;26324;52.040;11.528;2022-10-31T08:00:08;14.20;91.20
40622;DHT22;26324;52.040;11.528;2022-10-31T08:02:34;14.20;91.30
40622;DHT22;26324;52.040;11.528;2022-10-31T08:04:59;14.20;91.50
40622;DHT22;26324;52.040;11.528;2022-10-31T08:07:27;14.30;91.40
40622;DHT22;26324;52.040;11.528;2022-10-31T08:09:53;14.30;91.50
40622;DHT22;26324;52.040;11.528;2022-10-31T08:12:19;14.30;91.60
40622;DHT22;26324;52.040;11.528;2022-10-31T08:14:44;14.40;91.40
40622;DHT22;26324;52.040;11.528;2022-10-31T08:17:11;14.30;91.40
40622;DHT22;26324;52.040;11.528;2022-10-31T08:19:36;14.40;91.70
40622;DHT22;26324;52.040;11.528;2022-10-31T08:22:02;14.40;91.70
40622;DHT22;26324;52.040;11.528;2022-10-31T08:24:27;14.40;91.80
40622;DHT22;26324;52.040;11.528;2022-10-31T08:26:53;14.50;91.80
40622;DHT22;26324;52.040;11.528;2022-10-31T08:29:18;14.60;91.60
40622;DHT22;26324;52.040;11.528;2022-10-31T08:31:44;14.60;91.40
40622;DHT22;26324;52.040;11.528;2022-10-31T08:34:10;14.70;91.30
40622;DHT22;26324;52.040;11.528;2022-10-31T08:36:35;14.70;91.00
40622;DHT22;26324;52.040;11.528;2022-10-31T08:39:01;14.70;91.00
40622;DHT22;26324;52.040;11.528;2022-10-31T08:41:27;14.80;90.90
40622;DHT22;26324;52.040;11.528;2022-10-31T08:43:52;14.90;90.90
40622;DHT22;26324;52.040;11.528;2022-10-31T08:46:18;15.10;90.80
40622;DHT22;26324;52.040;11.528;2022-10-31T08:48:44;15.20;90.40
40622;DHT22;26324;52.040;11.528;2022-10-31T08:51:10;15.30;89.70
40622;DHT22;26324;52.040;11.528;2022-10-31T08:53:36;15.40;89.40
40622;DHT22;26324;52.040;11.528;2022-10-31T08:56:01;15.50;88.90
40622;DHT22;26324;52.040;11.528;2022-10-31T08:58:27;15.50;88.90
40622;DHT22;26324;52.040;11.528;2022-10-31T09:00:54;15.40;89.10
40622;DHT22;26324;52.040;11.528;2022-10-31T09:03:27;15.60;88.90
40622;DHT22;26324;52.040;11.528;2022-10-31T09:05:58;15.60;88.60
40622;DHT22;26324;52.040;11.528;2022-10-31T09:08:24;15.70;87.90
40622;DHT22;26324;52.040;11.528;2022-10-31T09:10:50;15.70;87.90
40622;DHT22;26324;52.040;11.528;2022-10-31T09:13:18;15.60;88.10
40622;DHT22;26324;52.040;11.528;2022-10-31T09:15:46;15.50;88.00
40622;DHT22;26324;52.040;11.528;2022-10-31T09:18:13;15.40;88.70
40622;DHT22;26324;52.040;11.528;2022-10-31T09:20:40;15.50;88.70
40622;DHT22;26324;52.040;11.528;2022-10-31T09:23:11;15.50;88.50
40622;DHT22;26324;52.040;11.528;2022-10-31T09:25:37;15.40;89.10
40622;DHT22;26324;52.040;11.528;2022-10-31T09:28:05;15.50;89.00
40622;DHT22;26324;52.040;11.528;2022-10-31T09:30:33;15.60;88.90
40622;DHT22;26324;52.040;11.528;2022-10-31T09:33:10;15.70;88.70
40622;DHT22;26324;52.040;11.528;2022-10-31T09:35:37;15.70;88.50
40622;DHT22;26324;52.040;11.528;2022-10-31T09:38:11;15.80;88.40
40622;DHT22;26324;52.040;11.528;2022-10-31T09:41:16;15.80;88.30
40622;DHT22;26324;52.040;11.528;2022-10-31T09:43:52;15.80;88.40
40622;DHT22;26324;52.040;11.528;2022-10-31T09:52:08;15.80;88.30
40622;DHT22;26324;52.040;11.528;2022-10-31T09:54:36;15.70;88.20
40622;DHT22;26324;52.040;11.528;2022-10-31T09:57:03;15.70;88.30
40622;DHT22;26324;52.040;11.528;2022-10-31T09:59:34;15.80;88.30
40622;DHT22;26324;52.040;11.528;2022-10-31T10:07:11;16.00;87.60
40622;DHT22;26324;52.040;11.528;2022-10-31T10:09:38;16.00;87.10
40622;DHT22;26324;52.040;11.528;2022-10-31T10:12:33;16.00;87.00
40622;DHT22;26324;52.040;11.528;2022-10-31T10:21:16;16.00;87.50
40622;DHT22;26324;52.040;11.528;2022-10-31T10:24:01;16.20;87.30
40622;DHT22;26324;52.040;11.528;2022-10-31T10:26:36;16.40;86.90
40622;DHT22;26324;52.040;11.528;2022-10-31T10:29:14;16.30;86.60
40622;DHT22;26324;52.040;11.528;2022-10-31T10:31:44;16.40;86.40
40622;DHT22;26324;52.040;11.528;2022-10-31T10:34:20;16.50;85.60
40622;DHT22;26324;52.040;11.528;2022-10-31T10:36:48;16.60;85.40
40622;DHT22;26324;52.040;11.528;2022-10-31T10:39:22;16.60;85.40
40622;DHT22;26324;52.040;11.528;2022-10-31T10:41:50;16.40;85.40
40622;DHT22;26324;52.040;11.528;2022-10-31T10:44:40;16.20;85.90
40622;DHT22;26324;52.040;11.528;2022-10-31T10:47:31;16.10;86.60
40622;DHT22;26324;52.040;11.528;2022-10-31T10:50:11;16.30;86.70
40622;DHT22;26324;52.040;11.528;2022-10-31T10:58:05;16.40;85.60
40622;DHT22;26324;52.040;11.528;2022-10-31T11:00:37;16.40;85.50
40622;DHT22;26324;52.040;11.528;2022-10-31T11:03:03;16.40;85.80
40622;DHT22;26324;52.040;11.528;2022-10-31T11:05:40;16.50;85.90
40622;DHT22;26324;52.040;11.528;2022-10-31T11:08:07;16.50;85.50
40622;DHT22;26324;52.040;11.528;2022-10-31T11:10:34;16.50;85.70
40622;DHT22;26324;52.040;11.528;2022-10-31T11:15:35;16.60;85.10
40622;DHT22;26324;52.040;11.528;2022-10-31T11:18:02;16.60;85.20
40622;DHT22;26324;52.040;11.528;2022-10-31T11:20:29;16.70;85.20
40622;DHT22;26324;52.040;11.528;2022-10-31T11:23:19;16.70;85.10
40622;DHT22;26324;52.040;11.528;2022-10-31T11:25:50;16.70;84.80
40622;DHT22;26324;52.040;11.528;2022-10-31T11:28:16;16.70;85.00
40622;DHT22;26324;52.040;11.528;2022-10-31T11:30:45;16.70;85.10
40622;DHT22;26324;52.040;11.528;2022-10-31T11:35:55;16.80;84.80
40622;DHT22;26324;52.040;11.528;2022-10-31T11:38:24;16.90;84.80
40622;DHT22;26324;52.040;11.528;2022-10-31T11:40:55;16.90;84.70
40622;DHT22;26324;52.040;11.528;2022-10-31T11:43:23;17.00;84.50
40622;DHT22;26324;52.040;11.528;2022-10-31T11:45:49;16.90;84.70
40622;DHT22;26324;52.040;11.528;2022-10-31T11:48:18;17.00;83.90
40622;DHT22;26324;52.040;11.528;2022-10-31T11:50:49;16.90;83.80
40622;DHT22;26324;52.040;11.528;2022-10-31T11:53:18;16.80;84.50
40622;DHT22;26324;52.040;11.528;2022-10-31T11:55:45;16.90;84.70
40622;DHT22;26324;52.040;11.528;2022-10-31T11:58:25;16.90;84.80
40622;DHT22;26324;52.040;11.528;2022-10-31T12:00:54;16.90;84.20
40622;DHT22;26324;52.040;11.528;2022-10-31T12:08:20;16.50;85.10
40622;DHT22;26324;52.040;11.528;2022-10-31T12:11:00;16.50;85.40
40622;DHT22;26324;52.040;11.528;2022-10-31T12:16:07;16.50;85.90
40622;DHT22;26324;52.040;11.528;2022-10-31T12:18:41;16.40;86.00
40622;DHT22;26324;52.040;11.528;2022-10-31T12:21:25;16.10;86.90
40622;DHT22;26324;52.040;11.528;2022-10-31T12:35:13;16.00;88.50
40622;DHT22;26324;52.040;11.528;2022-10-31T12:40:41;15.90;88.10
40622;DHT22;26324;52.040;11.528;2022-10-31T12:45:56;15.70;88.70
40622;DHT22;26324;52.040;11.528;2022-10-31T12:48:38;15.80;88.60
40622;DHT22;26324;52.040;11.528;2022-10-31T12:56:40;15.60;88.80
40622;DHT22;26324;52.040;11.528;2022-10-31T13:01:57;15.70;88.80
40622;DHT22;26324;52.040;11.528;2022-10-31T13:04:51;15.70;88.40
40622;DHT22;26324;52.040;11.528;2022-10-31T13:07:36;15.50;88.60
40622;DHT22;26324;52.040;11.528;2022-10-31T13:12:40;15.50;89.30
40622;DHT22;26324;52.040;11.528;2022-10-31T13:15:20;15.60;89.30
40622;DHT22;26324;52.040;11.528;2022-10-31T13:17:54;15.60;88.90
40622;DHT22;26324;52.040;11.528;2022-10-31T13:20:50;15.80;88.80
40622;DHT22;26324;52.040;11.528;2022-10-31T13:23:26;15.80;88.50
40622;DHT22;26324;52.040;11.528;2022-10-31T13:25:54;15.80;88.20
40622;DHT22;26324;52.040;11.528;2022-10-31T13:28:36;15.80;88.10
40622;DHT22;26324;52.040;11.528;2022-10-31T13:31:04;15.90;88.00
40622;DHT22;26324;52.040;11.528;2022-10-31T13:33:47;15.80;87.90
40622;DHT22;26324;52.040;11.528;2022-10-31T13:36:37;15.80;87.90
40622;DHT22;26324;52.040;11.528;2022-10-31T13:39:31;15.90;87.90
40622;DHT22;26324;52.040;11.528;2022-10-31T13:42:25;15.90;87.80
40622;DHT22;26324;52.040;11.528;2022-10-31T13:44:53;15.70;87.90
40622;DHT22;26324;52.040;11.528;2022-10-31T13:47:27;15.70;87.90
40622;DHT22;26324;52.040;11.528;2022-10-31T13:50:05;15.70;88.10
40622;DHT22;26324;52.040;11.528;2022-10-31T13:52:31;15.70;88.00
40622;DHT22;26324;52.040;11.528;2022-10-31T13:54:57;15.70;88.00
40622;DHT22;26324;52.040;11.528;2022-10-31T13:57:38;15.80;88.00
40622;DHT22;26324;52.040;11.528;2022-10-31T14:00:24;15.70;88.20
40622;DHT22;26324;52.040;11.528;2022-10-31T14:02:57;15.70;88.10
40622;DHT22;26324;52.040;11.528;2022-10-31T14:05:30;15.70;88.20
40622;DHT22;26324;52.040;11.528;2022-10-31T14:07:58;15.70;88.30
40622;DHT22;26324;52.040;11.528;2022-10-31T14:10:31;15.60;88.40
40622;DHT22;26324;52.040;11.528;2022-10-31T14:13:20;15.60;88.50
40622;DHT22;26324;52.040;11.528;2022-10-31T14:15:59;15.60;88.60
40622;DHT22;26324;52.040;11.528;2022-10-31T14:18:37;15.50;88.80
40622;DHT22;26324;52.040;11.528;2022-10-31T14:23:49;15.50;88.90
40622;DHT22;26324;52.040;11.528;2022-10-31T14:28:44;15.50;89.00
40622;DHT22;26324;52.040;11.528;2022-10-31T14:31:32;15.50;89.20
40622;DHT22;26324;52.040;11.528;2022-10-31T14:37:03;15.40;89.40
40622;DHT22;26324;52.040;11.528;2022-10-31T14:53:39;15.40;89.50
40622;DHT22;26324;52.040;11.528;2022-10-31T14:56:10;15.30;89.50
40622;DHT22;26324;52.040;11.528;2022-10-31T14:58:46;15.20;89.50
40622;DHT22;26324;52.040;11.528;2022-10-31T15:01:32;15.10;89.70
40622;DHT22;26324;52.040;11.528;2022-10-31T15:04:07;15.10;89.90
40622;DHT22;26324;52.040;11.528;2022-10-31T15:06:43;15.10;90.10
40622;DHT22;26324;52.040;11.528;2022-10-31T15:09:33;15.10;90.00
40622;DHT22;26324;52.040;11.528;2022-10-31T15:12:00;15.10;90.10
40622;DHT22;26324;52.040;11.528;2022-10-31T15:14:28;15.10;90.10
40622;DHT22;26324;52.040;11.528;2022-10-31T15:16:59;15.10;90.20
40622;DHT22;26324;52.040;11.528;2022-10-31T15:19:29;15.10;90.10
40622;DHT22;26324;52.040;11.528;2022-10-31T15:21:56;15.10;90.10
40622;DHT22;26324;52.040;11.528;2022-10-31T15:24:25;15.00;90.20
40622;DHT22;26324;52.040;11.528;2022-10-31T15:26:53;15.00;90.30
40622;DHT22;26324;52.040;11.528;2022-10-31T15:29:22;15.00;90.30
40622;DHT22;26324;52.040;11.528;2022-10-31T15:31:55;14.90;90.40
40622;DHT22;26324;52.040;11.528;2022-10-31T15:34:42;14.90;90.60
40622;DHT22;26324;52.040;11.528;2022-10-31T15:37:20;14.80;90.60
40622;DHT22;26324;52.040;11.528;2022-10-31T15:39:48;14.80;90.70
40622;DHT22;26324;52.040;11.528;2022-10-31T15:42:23;14.90;90.80
40622;DHT22;26324;52.040;11.528;2022-10-31T15:47:46;14.90;90.80
40622;DHT22;26324;52.040;11.528;2022-10-31T15:52:55;14.80;91.00
40622;DHT22;26324;52.040;11.528;2022-10-31T15:55:24;14.70;91.10
40622;DHT22;26324;52.040;11.528;2022-10-31T15:57:57;14.80;91.10
40622;DHT22;26324;52.040;11.528;2022-10-31T16:03:29;14.80;91.10
40622;DHT22;26324;52.040;11.528;2022-10-31T16:06:01;14.70;91.20
40622;DHT22;26324;52.040;11.528;2022-10-31T16:11:01;14.70;91.20
40622;DHT22;26324;52.040;11.528;2022-10-31T16:13:31;14.80;91.30
40622;DHT22;26324;52.040;11.528;2022-10-31T16:16:02;14.70;91.30
40622;DHT22;26324;52.040;11.528;2022-10-31T16:18:35;14.70;91.40
40622;DHT22;26324;52.040;11.528;2022-10-31T16:21:02;14.70;91.40
40622;DHT22;26324;52.040;11.528;2022-10-31T16:23:28;14.70;91.50
40622;DHT22;26324;52.040;11.528;2022-10-31T16:25:54;14.70;91.50
40622;DHT22;26324;52.040;11.528;2022-10-31T16:28:22;14.70;91.50
40622;DHT22;26324;52.040;11.528;2022-10-31T16:30:50;14.70;91.60
40622;DHT22;26324;52.040;11.528;2022-10-31T16:33:30;14.60;91.60
40622;DHT22;26324;52.040;11.528;2022-10-31T16:35:59;14.60;91.70
40622;DHT22;26324;52.040;11.528;2022-10-31T16:38:26;14.70;91.60
40622;DHT22;26324;52.040;11.528;2022-10-31T16:40:52;14.60;91.70
40622;DHT22;26324;52.040;11.528;2022-10-31T16:43:19;14.60;91.60
40622;DHT22;26324;52.040;11.528;2022-10-31T16:45:47;14.60;91.60
40622;DHT22;26324;52.040;11.528;2022-10-31T16:48:15;14.60;91.70
40622;DHT22;26324;52.040;11.528;2022-10-31T16:50:43;14.60;91.60
40622;DHT22;26324;52.040;11.528;2022-10-31T16:53:10;14.60;91.50
40622;DHT22;26324;52.040;11.528;2022-10-31T16:58:28;14.60;91.40
40622;DHT22;26324;52.040;11.528;2022-10-31T17:00:56;14.50;91.50
40622;DHT22;26324;52.040;11.528;2022-10-31T17:03:22;14.60;91.50
40622;DHT22;26324;52.040;11.528;2022-10-31T17:05:48;14.50;91.50
40622;DHT22;26324;52.040;11.528;2022-10-31T17:08:14;14.50;91.60
40622;DHT22;26324;52.040;11.528;2022-10-31T17:10:42;14.50;91.60
40622;DHT22;26324;52.040;11.528;2022-10-31T17:13:13;14.50;91.60
40622;DHT22;26324;52.040;11.528;2022-10-31T17:15:46;14.50;91.60
40622;DHT22;26324;52.040;11.528;2022-10-31T17:18:13;14.50;91.70
40622;DHT22;26324;52.040;11.528;2022-10-31T17:20:40;14.50;91.70
40622;DHT22;26324;52.040;11.528;2022-10-31T17:23:06;14.50;91.70
40622;DHT22;26324;52.040;11.528;2022-10-31T17:25:31;14.40;91.90
40622;DHT22;26324;52.040;11.528;2022-10-31T17:27:57;14.50;91.90
40622;DHT22;26324;52.040;11.528;2022-10-31T17:30:24;14.50;91.80
40622;DHT22;26324;52.040;11.528;2022-10-31T17:32:50;14.50;91.80
40622;DHT22;26324;52.040;11.528;2022-10-31T17:35:17;14.50;91.70